Time;durP1;ratioP1;P1;durP2;ratioP2;P2;SDS_P1;SDS_P2;PMS_P1;PMS_P2;Temp;Humidity;BMP_temperature;BMP_pressure;BME280_temperature;BME280_humidity;BME280_pressure;Samples;Min_cycle;Max_cycle;Signal;HPM_P1;HPM_P2
2022/09/20 00:01:22;;;;;;;4.90;2.30;;;5.60;99.90;;;;;;5031546;28;20438;-63
2022/09/20 00:03:51;;;;;;;5.33;2.30;;;5.60;99.90;;;;;;5017299;28;20451;-62
2022/09/20 00:06:19;;;;;;;4.70;2.23;;;5.60;99.90;;;;;;5032523;28;20432;-63
2022/09/20 00:08:45;;;;;;;4.83;2.33;;;5.60;99.90;;;;;;5024950;28;20476;-63
2022/09/20 00:11:17;;;;;;;3.77;2.33;;;5.60;99.90;;;;;;5030573;28;20934;-63
2022/09/20 00:13:44;;;;;;;3.60;2.03;;;5.60;99.90;;;;;;5027668;28;20500;-63
2022/09/20 00:16:18;;;;;;;6.43;2.37;;;5.60;99.90;;;;;;5028884;28;20426;-62
2022/09/20 00:18:48;;;;;;;2.83;2.00;;;5.60;99.90;;;;;;5003847;28;20437;-62
2022/09/20 00:21:20;;;;;;;3.93;2.20;;;5.50;99.90;;;;;;5030334;28;20534;-63
2022/09/20 00:23:46;;;;;;;3.80;2.20;;;5.50;99.90;;;;;;5007172;28;20423;-63
2022/09/20 00:26:12;;;;;;;2.70;2.10;;;5.40;99.90;;;;;;5027471;28;20907;-63
2022/09/20 00:28:39;;;;;;;10.93;2.17;;;5.40;99.90;;;;;;5027791;28;20187;-62
2022/09/20 00:31:05;;;;;;;5.33;2.03;;;5.40;99.90;;;;;;5030530;28;20462;-62
2022/09/20 00:36:15;;;;;;;3.20;2.33;;;5.30;99.90;;;;;;5025535;28;20437;-62
2022/09/20 00:38:41;;;;;;;4.80;2.43;;;5.30;99.90;;;;;;5053816;28;20410;-63
2022/09/20 00:41:07;;;;;;;3.53;2.33;;;5.30;99.90;;;;;;5030549;28;20270;-62
2022/09/20 00:43:39;;;;;;;3.47;2.70;;;5.20;99.90;;;;;;5014282;28;20457;-62
2022/09/20 00:46:20;;;;;;;2.60;2.37;;;5.20;99.90;;;;;;5028399;28;20428;-62
2022/09/20 00:48:47;;;;;;;4.20;2.40;;;5.20;99.90;;;;;;5051077;28;20404;-62
2022/09/20 00:51:16;;;;;;;4.00;2.73;;;5.20;99.90;;;;;;5025481;28;20466;-63
2022/09/20 00:53:47;;;;;;;5.20;2.80;;;5.20;99.90;;;;;;5029920;28;20489;-63
2022/09/20 00:56:19;;;;;;;6.20;2.53;;;5.20;99.90;;;;;;5033457;28;20444;-63
2022/09/20 00:58:50;;;;;;;3.93;2.30;;;5.20;99.90;;;;;;5029037;28;20410;-63
2022/09/20 01:01:17;;;;;;;4.00;2.50;;;5.10;99.90;;;;;;5031595;28;20414;-62
2022/09/20 01:03:44;;;;;;;4.73;2.30;;;5.10;99.90;;;;;;5020361;28;20924;-63
2022/09/20 01:06:14;;;;;;;3.00;2.40;;;5.10;99.90;;;;;;5031163;28;20423;-62
2022/09/20 01:08:43;;;;;;;4.97;2.47;;;5.10;99.90;;;;;;5030707;28;20904;-62
2022/09/20 01:11:09;;;;;;;5.40;2.80;;;5.10;99.90;;;;;;5033048;28;20446;-63
2022/09/20 01:13:34;;;;;;;4.17;2.50;;;5.10;99.90;;;;;;5013244;28;20456;-62
2022/09/20 01:16:02;;;;;;;3.73;2.70;;;5.00;99.90;;;;;;5029775;28;20278;-62
2022/09/20 01:18:30;;;;;;;5.53;3.23;;;5.10;99.90;;;;;;5033917;28;20230;-63
2022/09/20 01:20:57;;;;;;;3.90;1.93;;;5.00;99.90;;;;;;5027019;28;20427;-62
2022/09/20 01:23:47;;;;;;;4.17;2.57;;;5.00;99.90;;;;;;5026841;28;20454;-62
2022/09/20 01:26:15;;;;;;;4.97;2.63;;;5.00;99.90;;;;;;5031616;28;20417;-62
2022/09/20 01:28:46;;;;;;;2.80;2.43;;;4.90;99.90;;;;;;5026654;28;20457;-62
2022/09/20 01:31:40;;;;;;;3.40;2.90;;;5.00;99.90;;;;;;4995370;28;20478;-62
2022/09/20 01:34:16;;;;;;;4.37;2.67;;;4.90;99.90;;;;;;5027476;28;20422;-63
2022/09/20 01:37:03;;;;;;;3.20;2.17;;;4.90;99.90;;;;;;5028240;28;20505;-62
2022/09/20 01:39:36;;;;;;;6.60;2.90;;;4.80;99.90;;;;;;5028726;28;20509;-63
2022/09/20 01:42:06;;;;;;;4.53;2.70;;;4.80;99.90;;;;;;5018687;28;20687;-62
2022/09/20 01:44:56;;;;;;;4.10;2.80;;;4.80;99.90;;;;;;5031158;28;20446;-62
2022/09/20 01:48:13;;;;;;;3.60;2.60;;;4.70;99.90;;;;;;5029250;28;20421;-63
2022/09/20 01:51:00;;;;;;;7.07;2.53;;;4.70;99.90;;;;;;4974266;28;20550;-63
2022/09/20 01:53:57;;;;;;;4.47;2.20;;;4.80;99.90;;;;;;5024667;28;20529;-64
2022/09/20 01:56:50;;;;;;;7.63;2.70;;;4.70;99.90;;;;;;5046034;28;20433;-62
2022/09/20 01:59:23;;;;;;;2.77;2.57;;;4.80;99.90;;;;;;5027277;28;20440;-63
2022/09/20 02:02:06;;;;;;;10.03;3.00;;;4.80;99.90;;;;;;5000590;28;20436;-62
2022/09/20 02:04:39;;;;;;;3.50;2.40;;;4.80;99.90;;;;;;5029906;28;20994;-63
2022/09/20 02:07:43;;;;;;;6.20;2.80;;;4.80;99.90;;;;;;5030972;28;20873;-63
2022/09/20 02:10:46;;;;;;;11.00;3.20;;;4.70;99.90;;;;;;5020119;28;20458;-63
2022/09/20 02:13:27;;;;;;;8.70;3.00;;;4.60;99.90;;;;;;5041039;28;20433;-62
2022/09/20 02:16:04;;;;;;;11.20;3.87;;;4.60;99.90;;;;;;5056078;28;20422;-63
2022/09/20 02:18:45;;;;;;;19.23;3.87;;;4.50;99.90;;;;;;5035920;28;20484;-63
2022/09/20 02:21:46;;;;;;;10.13;3.80;;;4.50;99.90;;;;;;5035694;28;20428;-62
2022/09/20 02:24:30;;;;;;;10.00;3.50;;;4.60;99.90;;;;;;4988859;28;20440;-63
2022/09/20 02:27:27;;;;;;;11.10;3.70;;;4.60;99.90;;;;;;5020274;28;20430;-63
2022/09/20 02:30:21;;;;;;;34.30;4.63;;;4.60;99.90;;;;;;5026927;28;20462;-63
2022/09/20 02:33:24;;;;;;;34.80;4.77;;;4.60;99.90;;;;;;5021679;28;20520;-62
2022/09/20 02:36:01;;;;;;;22.40;4.50;;;4.50;99.90;;;;;;5026752;28;20422;-62
2022/09/20 02:39:01;;;;;;;20.80;4.27;;;4.50;99.90;;;;;;5036389;28;20430;-63
2022/09/20 02:41:51;;;;;;;50.00;5.13;;;4.40;99.90;;;;;;5028750;28;20435;-64
2022/09/20 02:44:43;;;;;;;23.53;4.47;;;4.50;99.90;;;;;;5031713;28;20964;-63
2022/09/20 02:47:24;;;;;;;28.20;5.20;;;4.40;99.90;;;;;;5029259;28;20534;-63
2022/09/20 02:50:22;;;;;;;18.57;4.70;;;4.40;99.90;;;;;;5027300;28;20457;-62
2022/09/20 02:53:23;;;;;;;21.73;4.33;;;4.40;99.90;;;;;;5024638;28;20450;-63
2022/09/20 02:56:07;;;;;;;48.67;5.17;;;4.40;99.90;;;;;;5008486;28;20534;-62
2022/09/20 02:58:46;;;;;;;42.30;5.90;;;4.40;99.90;;;;;;5015807;28;21039;-62
2022/09/20 03:01:23;;;;;;;26.37;5.67;;;4.30;99.90;;;;;;5029354;28;20520;-63
2022/09/20 03:04:23;;;;;;;32.77;5.00;;;4.30;99.90;;;;;;5030456;28;20453;-62
2022/09/20 03:06:54;;;;;;;40.17;6.33;;;4.30;99.90;;;;;;5021503;28;20454;-63
2022/09/20 03:09:38;;;;;;;7.80;5.00;;;4.30;99.90;;;;;;5049745;28;20444;-62
2022/09/20 03:12:13;;;;;;;14.70;5.00;;;4.30;99.90;;;;;;5025239;28;20426;-62
2022/09/20 03:15:11;;;;;;;17.67;5.50;;;4.30;99.90;;;;;;5028236;28;20422;-63
2022/09/20 03:18:03;;;;;;;13.63;4.30;;;4.30;99.90;;;;;;5030887;28;20422;-63
2022/09/20 03:20:50;;;;;;;6.50;3.90;;;4.40;99.90;;;;;;5033025;28;20425;-63
2022/09/20 03:23:34;;;;;;;14.43;4.40;;;4.40;99.90;;;;;;5032075;28;20434;-63
2022/09/20 03:26:35;;;;;;;20.23;3.90;;;4.50;99.90;;;;;;5029235;28;20430;-63
2022/09/20 03:29:08;;;;;;;19.10;4.20;;;4.50;99.90;;;;;;5013559;28;20438;-63
2022/09/20 03:31:46;;;;;;;12.93;5.07;;;4.40;99.90;;;;;;5029294;28;20848;-62
2022/09/20 03:34:35;;;;;;;9.60;5.20;;;4.40;99.90;;;;;;5018423;28;20458;-63
2022/09/20 03:37:44;;;;;;;13.70;5.67;;;4.40;99.90;;;;;;5027795;28;20485;-63
2022/09/20 03:40:47;;;;;;;16.13;5.70;;;4.50;99.90;;;;;;4964178;28;20485;-62
2022/09/20 03:43:28;;;;;;;12.30;4.90;;;4.50;99.90;;;;;;5030307;28;20976;-62
2022/09/20 03:45:59;;;;;;;57.80;4.90;;;4.50;99.90;;;;;;5019831;28;20430;-63
2022/09/20 03:48:57;;;;;;;48.73;5.30;;;4.40;99.90;;;;;;5028948;28;20425;-62
2022/09/20 03:51:41;;;;;;;44.97;5.70;;;4.30;99.90;;;;;;5029182;28;20465;-62
2022/09/20 03:54:31;;;;;;;26.93;4.60;;;4.20;99.90;;;;;;5024297;28;20477;-62
2022/09/20 03:57:00;;;;;;;22.53;4.57;;;4.10;99.90;;;;;;5024566;28;20462;-62
2022/09/20 04:00:03;;;;;;;44.00;4.93;;;4.00;99.90;;;;;;5040463;28;20536;-62
2022/09/20 04:02:59;;;;;;;32.93;5.97;;;4.00;99.90;;;;;;5024382;28;20446;-61
2022/09/20 04:05:46;;;;;;;22.57;5.13;;;4.00;99.90;;;;;;5028205;28;20435;-63
2022/09/20 04:08:14;;;;;;;74.93;7.40;;;4.00;99.90;;;;;;5018604;28;20431;-61
2022/09/20 04:10:51;;;;;;;33.80;5.37;;;3.90;99.90;;;;;;5025580;28;20496;-61
2022/09/20 04:13:43;;;;;;;19.27;5.23;;;3.90;99.90;;;;;;5022830;28;20497;-61
2022/09/20 04:16:42;;;;;;;48.20;5.83;;;3.90;99.90;;;;;;5010818;28;20442;-61
2022/09/20 04:19:22;;;;;;;42.67;5.90;;;3.90;99.90;;;;;;5026213;28;20426;-57
2022/09/20 04:21:58;;;;;;;34.47;5.07;;;3.90;99.90;;;;;;5027275;28;20583;-61
2022/09/20 04:24:47;;;;;;;26.70;5.50;;;3.80;99.90;;;;;;5018252;28;20461;-62
2022/09/20 04:27:38;;;;;;;13.47;6.90;;;3.80;99.90;;;;;;5020825;28;20445;-61
2022/09/20 04:30:21;;;;;;;19.23;7.60;;;3.80;99.90;;;;;;5006558;28;20477;-61
2022/09/20 04:33:10;;;;;;;23.73;8.20;;;3.80;99.90;;;;;;5018499;28;21004;-61
2022/09/20 04:36:29;;;;;;;20.70;8.60;;;3.80;99.90;;;;;;5014819;28;20457;-61
2022/09/20 04:39:22;;;;;;;32.17;9.63;;;3.90;99.90;;;;;;5000608;28;20585;-61
2022/09/20 04:42:08;;;;;;;34.13;8.37;;;3.90;99.90;;;;;;5026111;28;20430;-61
2022/09/20 04:45:15;;;;;;;56.77;9.97;;;3.90;99.90;;;;;;5024505;28;20433;-62
2022/09/20 04:48:17;;;;;;;43.80;11.80;;;4.00;99.90;;;;;;4996669;28;20609;-61
2022/09/20 04:51:02;;;;;;;36.67;11.30;;;4.00;99.90;;;;;;5021452;28;20467;-63
2022/09/20 04:53:39;;;;;;;90.97;13.37;;;4.00;99.90;;;;;;5019656;28;20514;-61
2022/09/20 04:56:31;;;;;;;44.20;12.10;;;4.10;99.90;;;;;;5025141;28;20462;-61
2022/09/20 04:59:09;;;;;;;52.40;12.10;;;4.10;99.90;;;;;;5008941;28;20484;-61
2022/09/20 05:01:43;;;;;;;51.87;12.97;;;4.10;99.90;;;;;;5029831;28;20445;-62
2022/09/20 05:05:00;;;;;;;35.17;10.97;;;4.10;99.90;;;;;;5027672;28;20822;-62
2022/09/20 05:07:59;;;;;;;21.47;9.47;;;4.10;99.90;;;;;;4998298;28;20437;-63
2022/09/20 05:10:37;;;;;;;27.70;10.60;;;4.10;99.90;;;;;;5049797;28;20469;-62
2022/09/20 05:13:22;;;;;;;34.60;10.60;;;4.10;99.90;;;;;;5030813;28;20455;-62
2022/09/20 05:15:51;;;;;;;39.83;12.93;;;4.10;99.90;;;;;;5025152;28;20490;-61
2022/09/20 05:18:48;;;;;;;30.17;11.93;;;4.10;99.90;;;;;;5031226;28;20421;-62
2022/09/20 05:21:23;;;;;;;40.50;13.07;;;4.10;99.90;;;;;;5020675;28;20522;-61
2022/09/20 05:24:20;;;;;;;62.17;12.80;;;4.10;99.90;;;;;;5020598;28;20477;-61
2022/09/20 05:27:18;;;;;;;54.53;13.33;;;4.20;99.90;;;;;;5024215;28;20434;-62
2022/09/20 05:30:02;;;;;;;65.40;13.40;;;4.10;99.90;;;;;;5026503;28;20437;-62
2022/09/20 05:32:54;;;;;;;32.40;13.10;;;4.10;99.90;;;;;;5029584;28;20481;-61
2022/09/20 05:35:37;;;;;;;85.80;13.70;;;4.10;99.90;;;;;;5042656;28;20466;-62
2022/09/20 05:38:40;;;;;;;38.43;10.50;;;4.00;99.90;;;;;;5027297;28;20520;-61
2022/09/20 05:41:32;;;;;;;53.70;11.13;;;4.00;99.90;;;;;;5038072;28;20465;-61
2022/09/20 05:44:26;;;;;;;44.87;11.07;;;3.90;99.90;;;;;;5027147;28;20453;-61
2022/09/20 05:47:28;;;;;;;71.30;12.70;;;3.90;99.90;;;;;;5026405;28;20445;-61
2022/09/20 05:49:59;;;;;;;67.87;11.13;;;3.90;99.90;;;;;;5023761;28;20523;-61
2022/09/20 05:52:40;;;;;;;25.97;10.43;;;3.80;99.90;;;;;;5025487;28;20450;-62
2022/09/20 05:55:48;;;;;;;36.43;11.57;;;3.80;99.90;;;;;;5032120;28;20436;-61
2022/09/20 05:58:42;;;;;;;30.60;11.33;;;3.80;99.90;;;;;;4968348;28;20442;-61
2022/09/20 06:01:23;;;;;;;28.93;12.90;;;3.80;99.90;;;;;;4985012;28;20448;-61
2022/09/20 06:03:53;;;;;;;24.30;11.90;;;3.80;99.90;;;;;;5031959;28;20457;-61
2022/09/20 06:06:44;;;;;;;32.50;11.33;;;3.90;99.90;;;;;;5031564;28;20486;-61
2022/09/20 06:09:19;;;;;;;24.00;10.53;;;3.90;99.90;;;;;;5025672;28;20460;-62
2022/09/20 06:11:45;;;;;;;33.63;12.47;;;4.00;99.90;;;;;;5022263;28;20595;-62
2022/09/20 06:14:19;;;;;;;36.87;12.27;;;4.00;99.90;;;;;;5019916;28;20460;-61
2022/09/20 06:16:53;;;;;;;69.47;16.00;;;4.10;99.90;;;;;;5014689;28;20516;-61
2022/09/20 06:19:44;;;;;;;65.93;16.90;;;4.10;99.90;;;;;;5020656;28;20430;-62
2022/09/20 06:22:23;;;;;;;58.77;18.23;;;4.20;99.90;;;;;;5031926;28;20414;-61
2022/09/20 06:24:59;;;;;;;59.13;17.00;;;4.30;99.90;;;;;;5031496;28;20422;-61
2022/09/20 06:27:32;;;;;;;74.63;18.93;;;4.30;99.90;;;;;;5028790;28;20472;-62
2022/09/20 06:30:04;;;;;;;78.53;18.00;;;4.40;99.90;;;;;;5023333;28;20901;-62
2022/09/20 06:32:30;;;;;;;64.70;17.43;;;4.40;99.90;;;;;;5028249;28;20873;-62
2022/09/20 06:34:59;;;;;;;78.17;17.23;;;4.50;99.90;;;;;;5031286;28;20422;-62
2022/09/20 06:43:39;;;;;;;41.77;13.43;;;4.50;99.90;;;;;;5022439;28;20461;-61
2022/09/20 06:46:05;;;;;;;40.37;12.60;;;4.50;99.90;;;;;;5031107;28;20434;-62
2022/09/20 06:48:30;;;;;;;50.17;13.53;;;4.50;99.90;;;;;;5030459;28;20438;-61
2022/09/20 06:50:56;;;;;;;40.83;12.60;;;4.50;99.90;;;;;;5032605;28;20203;-61
2022/09/20 06:53:27;;;;;;;42.10;13.13;;;4.60;99.90;;;;;;5026001;28;20279;-61
2022/09/20 06:55:53;;;;;;;42.97;13.53;;;4.70;99.90;;;;;;5036112;28;20331;-61
2022/09/20 06:58:19;;;;;;;37.13;12.50;;;4.70;99.90;;;;;;5024503;28;20513;-61
2022/09/20 07:00:45;;;;;;;34.50;13.03;;;4.80;99.90;;;;;;5033983;28;20226;-62
2022/09/20 07:03:11;;;;;;;37.63;13.27;;;4.90;99.90;;;;;;5033170;28;20578;-61
2022/09/20 07:05:37;;;;;;;35.90;12.27;;;5.10;99.90;;;;;;5012572;28;21488;-62
2022/09/20 07:08:03;;;;;;;40.73;13.10;;;5.20;99.90;;;;;;5031343;28;20441;-61
2022/09/20 07:10:29;;;;;;;41.30;13.87;;;5.30;99.90;;;;;;5020890;28;20462;-61
2022/09/20 07:12:58;;;;;;;32.27;12.20;;;5.50;99.90;;;;;;5024304;28;20516;-61
2022/09/20 07:15:24;;;;;;;21.70;10.33;;;5.60;99.90;;;;;;5028840;28;21000;-55
2022/09/20 07:17:50;;;;;;;25.83;11.53;;;5.70;99.90;;;;;;5032222;28;20480;-56
2022/09/20 07:20:16;;;;;;;28.27;12.63;;;5.80;99.90;;;;;;5009021;28;20454;-61
2022/09/20 07:22:42;;;;;;;30.33;11.27;;;5.90;99.90;;;;;;5029461;28;20207;-61
2022/09/20 07:25:08;;;;;;;29.87;12.13;;;6.00;99.90;;;;;;5031960;28;20406;-61
2022/09/20 07:27:33;;;;;;;31.77;12.17;;;6.10;99.90;;;;;;5027943;28;20240;-61
2022/09/20 07:30:01;;;;;;;31.37;12.40;;;6.20;99.90;;;;;;5025911;28;20462;-61
2022/09/20 07:32:26;;;;;;;32.53;12.93;;;6.30;99.90;;;;;;5026795;28;20789;-61
2022/09/20 07:34:52;;;;;;;27.00;11.00;;;6.50;99.90;;;;;;5030329;28;20425;-61
2022/09/20 07:37:21;;;;;;;26.63;10.97;;;6.60;99.90;;;;;;5034156;28;20175;-61
2022/09/20 07:39:46;;;;;;;25.60;10.43;;;6.80;99.90;;;;;;5024700;28;20176;-61
2022/09/20 07:42:12;;;;;;;24.40;10.20;;;6.90;99.90;;;;;;5024425;28;21048;-61
2022/09/20 07:44:41;;;;;;;22.50;10.20;;;7.10;99.90;;;;;;5030234;28;20204;-60
2022/09/20 07:47:09;;;;;;;25.30;10.27;;;7.20;99.90;;;;;;5030169;28;20180;-62
2022/09/20 07:49:35;;;;;;;21.07;9.33;;;7.30;99.90;;;;;;5013632;28;21020;-60
2022/09/20 07:52:01;;;;;;;20.77;8.97;;;7.40;99.90;;;;;;5027026;28;21089;-61
2022/09/20 07:54:27;;;;;;;24.03;8.70;;;7.40;99.90;;;;;;5014314;28;20479;-61
2022/09/20 07:56:53;;;;;;;19.47;9.43;;;7.50;99.90;;;;;;5031841;28;20441;-61
2022/09/20 07:59:18;;;;;;;17.10;8.50;;;7.50;99.90;;;;;;5041595;28;20442;-60
2022/09/20 08:01:44;;;;;;;20.47;7.63;;;7.60;99.90;;;;;;5028818;28;20183;-61
2022/09/20 08:04:10;;;;;;;20.30;8.47;;;7.80;99.90;;;;;;5029431;28;20211;-61
2022/09/20 08:06:37;;;;;;;16.83;7.87;;;8.00;99.90;;;;;;5011652;28;20186;-61
2022/09/20 08:09:04;;;;;;;14.50;6.40;;;8.10;99.90;;;;;;5027218;28;20437;-60
2022/09/20 08:11:30;;;;;;;16.13;6.97;;;8.30;99.90;;;;;;5028836;28;20462;-62
2022/09/20 08:13:58;;;;;;;11.10;6.03;;;8.50;99.90;;;;;;5031184;28;20461;-63
2022/09/20 08:16:25;;;;;;;14.10;6.20;;;8.70;99.90;;;;;;5021707;28;20249;-60
2022/09/20 08:18:55;;;;;;;12.33;4.73;;;8.90;99.90;;;;;;5030064;28;20857;-59
2022/09/20 08:21:22;;;;;;;6.97;4.67;;;9.10;99.90;;;;;;5029579;28;20442;-61
2022/09/20 08:23:49;;;;;;;7.67;4.20;;;9.20;99.90;;;;;;5027521;28;20500;-60
2022/09/20 08:26:17;;;;;;;8.83;4.20;;;9.40;99.90;;;;;;5020640;28;20450;-60
2022/09/20 08:28:44;;;;;;;8.53;4.27;;;9.50;99.90;;;;;;5011180;28;20533;-61
2022/09/20 08:31:12;;;;;;;8.53;4.40;;;9.70;99.90;;;;;;5030941;28;20540;-61
2022/09/20 08:33:39;;;;;;;7.60;3.73;;;9.80;99.90;;;;;;5025836;28;20458;-60
2022/09/20 08:36:06;;;;;;;16.03;3.10;;;10.00;99.90;;;;;;5026879;28;20449;-62
2022/09/20 08:38:33;;;;;;;15.53;3.33;;;10.20;99.90;;;;;;5032916;28;20481;-61
2022/09/20 08:41:04;;;;;;;11.40;3.80;;;10.30;99.90;;;;;;5026965;28;20461;-60
2022/09/20 08:43:50;;;;;;;5.93;3.20;;;10.50;99.90;;;;;;5026599;28;20875;-61
2022/09/20 08:46:18;;;;;;;15.03;3.10;;;10.60;97.70;;;;;;5025967;28;20499;-61
2022/09/20 08:48:45;;;;;;;9.33;3.00;;;10.70;97.20;;;;;;5023873;28;20805;-61
2022/09/20 08:51:14;;;;;;;5.10;2.73;;;10.80;95.70;;;;;;5024184;28;20820;-61
2022/09/20 08:54:03;;;;;;;7.17;3.10;;;10.90;94.40;;;;;;5046154;28;20456;-61
2022/09/20 08:56:35;;;;;;;7.23;2.60;;;11.10;91.50;;;;;;5020508;28;20441;-60
2022/09/20 08:59:01;;;;;;;5.13;2.17;;;11.20;90.70;;;;;;5025605;28;20460;-61
2022/09/20 09:01:30;;;;;;;4.40;2.27;;;11.30;87.80;;;;;;5026057;28;20457;-61
2022/09/20 09:04:17;;;;;;;5.63;2.10;;;11.40;86.20;;;;;;5026106;28;20473;-61
2022/09/20 09:06:45;;;;;;;6.20;2.43;;;11.60;80.50;;;;;;5022296;28;20434;-60
2022/09/20 09:09:18;;;;;;;5.37;2.17;;;11.70;78.50;;;;;;5009541;28;20442;-61
2022/09/20 09:11:48;;;;;;;2.20;1.80;;;11.80;76.20;;;;;;5040859;28;20489;-62
2022/09/20 09:17:26;;;;;;;3.70;1.83;;;12.20;68.80;;;;;;5023829;28;20433;-60
2022/09/20 09:19:56;;;;;;;7.53;2.17;;;12.40;65.90;;;;;;5028367;28;20457;-60
2022/09/20 09:22:38;;;;;;;6.77;2.53;;;12.60;63.00;;;;;;5026253;28;20443;-62
2022/09/20 09:25:16;;;;;;;5.80;1.80;;;12.70;61.40;;;;;;5005379;28;20434;-61
2022/09/20 09:28:13;;;;;;;2.50;1.80;;;12.80;60.70;;;;;;5050567;28;20422;-60
2022/09/20 09:30:43;;;;;;;1.60;1.50;;;12.90;60.40;;;;;;4996445;28;20473;-60
2022/09/20 09:33:29;;;;;;;4.30;1.77;;;13.10;60.50;;;;;;5025882;28;20458;-62
2022/09/20 09:36:06;;;;;;;3.50;1.90;;;13.20;60.40;;;;;;5022011;28;20422;-60
2022/09/20 09:38:40;;;;;;;3.27;2.00;;;13.30;57.70;;;;;;5028754;28;20465;-60
2022/09/20 09:41:25;;;;;;;2.07;1.40;;;13.20;55.00;;;;;;5012225;28;20441;-63
2022/09/20 09:44:03;;;;;;;5.27;1.90;;;12.90;55.00;;;;;;5016896;28;20490;-60
2022/09/20 09:46:32;;;;;;;3.10;1.53;;;12.70;55.80;;;;;;5025308;28;20434;-60
2022/09/20 09:49:17;;;;;;;3.57;1.57;;;12.50;55.90;;;;;;5026004;28;20443;-61
2022/09/20 09:52:02;;;;;;;5.00;1.80;;;12.30;54.70;;;;;;5018072;28;20508;-60
2022/09/20 09:54:37;;;;;;;2.53;1.93;;;12.10;54.90;;;;;;5026639;28;20509;-61
2022/09/20 09:57:30;;;;;;;1.97;1.40;;;12.20;55.70;;;;;;5025728;28;20476;-58
2022/09/20 10:00:21;;;;;;;2.00;1.70;;;12.30;56.20;;;;;;5022156;28;20442;-60
2022/09/20 10:03:07;;;;;;;3.33;1.37;;;12.40;55.40;;;;;;5027759;28;20507;-60
2022/09/20 10:05:52;;;;;;;4.30;1.60;;;12.40;54.80;;;;;;5027344;28;20973;-59
2022/09/20 10:08:34;;;;;;;3.60;1.30;;;12.40;55.40;;;;;;5020353;28;20431;-62
2022/09/20 10:11:28;;;;;;;11.00;1.53;;;12.30;55.40;;;;;;5032550;28;20461;-60
2022/09/20 10:14:06;;;;;;;3.60;2.07;;;12.30;55.90;;;;;;5016215;28;20469;-60
2022/09/20 10:16:34;;;;;;;3.70;1.80;;;12.20;56.00;;;;;;5026429;28;20434;-62
2022/09/20 10:19:05;;;;;;;2.47;1.40;;;12.20;55.80;;;;;;5026923;28;20434;-58
2022/09/20 10:21:50;;;;;;;2.13;1.40;;;12.20;56.40;;;;;;5028255;28;20434;-58
2022/09/20 10:24:29;;;;;;;2.73;1.70;;;12.30;56.60;;;;;;5015404;28;21315;-61
2022/09/20 10:27:14;;;;;;;3.17;1.67;;;12.40;56.60;;;;;;5025699;28;20434;-60
2022/09/20 10:30:03;;;;;;;3.67;1.63;;;12.40;56.50;;;;;;5028949;28;20456;-61
2022/09/20 10:32:54;;;;;;;4.53;1.53;;;12.60;56.80;;;;;;5023222;28;20446;-60
2022/09/20 10:35:33;;;;;;;1.43;1.33;;;12.70;56.60;;;;;;5025298;28;20875;-60
2022/09/20 10:38:13;;;;;;;4.10;1.30;;;12.80;56.20;;;;;;5025901;28;20513;-61
2022/09/20 10:44:05;;;;;;;2.50;2.00;;;13.30;55.40;;;;;;5028916;28;20988;-61
2022/09/20 10:46:31;;;;;;;3.13;1.60;;;13.70;55.20;;;;;;5031963;28;20521;-59
2022/09/20 10:49:24;;;;;;;1.20;1.00;;;14.00;51.50;;;;;;5028997;28;20440;-60
2022/09/20 10:52:07;;;;;;;1.70;1.30;;;14.40;50.40;;;;;;5031135;28;20202;-57
2022/09/20 10:55:05;;;;;;;3.17;1.57;;;14.70;50.50;;;;;;5030178;28;20524;-59
2022/09/20 10:57:48;;;;;;;2.30;1.27;;;14.90;51.00;;;;;;5015364;28;20423;-60
2022/09/20 11:00:33;;;;;;;3.50;2.17;;;15.00;50.60;;;;;;5030603;28;20430;-60
2022/09/20 11:03:23;;;;;;;1.63;1.30;;;14.70;49.80;;;;;;5030175;28;20438;-57
2022/09/20 11:06:09;;;;;;;2.70;1.50;;;14.50;50.20;;;;;;5030299;28;20427;-57
2022/09/20 11:08:37;;;;;;;3.23;1.60;;;14.40;50.70;;;;;;5010959;28;20435;-56
2022/09/20 11:11:11;;;;;;;2.17;1.40;;;14.20;51.10;;;;;;5030210;28;20716;-58
2022/09/20 11:14:07;;;;;;;5.17;1.27;;;14.20;51.90;;;;;;5026021;28;20853;-57
2022/09/20 11:16:51;;;;;;;4.20;1.43;;;14.40;52.30;;;;;;5033812;28;20962;-58
2022/09/20 11:19:49;;;;;;;3.93;1.30;;;14.70;52.40;;;;;;5031204;28;20494;-59
2022/09/20 11:22:21;;;;;;;4.43;1.50;;;14.90;51.90;;;;;;5021600;28;20815;-59
2022/09/20 11:25:19;;;;;;;1.60;1.50;;;14.80;50.60;;;;;;5026587;28;20429;-57
2022/09/20 11:28:03;;;;;;;2.03;1.13;;;14.70;50.70;;;;;;5013307;28;20400;-59
2022/09/20 11:30:32;;;;;;;2.50;1.20;;;14.70;50.10;;;;;;5036439;28;21041;-60
2022/09/20 11:33:14;;;;;;;2.13;1.20;;;14.60;48.10;;;;;;5024453;28;20538;-60
2022/09/20 11:35:48;;;;;;;1.67;1.20;;;14.50;48.30;;;;;;5036048;28;20936;-60
2022/09/20 11:38:46;;;;;;;1.53;1.43;;;14.60;49.00;;;;;;5030604;28;20413;-58
2022/09/20 11:41:14;;;;;;;1.83;1.00;;;14.90;49.50;;;;;;5010557;28;20459;-59
2022/09/20 11:43:44;;;;;;;1.97;1.37;;;15.00;49.00;;;;;;5013403;28;20580;-60
2022/09/20 11:46:20;;;;;;;1.50;1.10;;;15.10;48.60;;;;;;5015638;28;20423;-61
2022/09/20 11:49:14;;;;;;;2.33;1.10;;;15.20;46.30;;;;;;5016299;28;20516;-61
2022/09/20 11:52:17;;;;;;;2.47;1.20;;;15.40;47.20;;;;;;5022346;28;20565;-62
2022/09/20 11:54:51;;;;;;;1.87;1.20;;;15.60;47.00;;;;;;5031563;28;20955;-60
2022/09/20 11:57:16;;;;;;;2.20;1.50;;;15.50;45.80;;;;;;5031823;28;20413;-60
2022/09/20 11:59:50;;;;;;;1.03;1.03;;;15.30;45.50;;;;;;5029501;28;20434;-61
2022/09/20 12:02:25;;;;;;;3.13;1.10;;;15.30;45.20;;;;;;5022385;28;20168;-60
2022/09/20 12:04:52;;;;;;;1.70;1.00;;;15.40;46.00;;;;;;5019189;28;20402;-61
2022/09/20 12:07:27;;;;;;;2.13;1.00;;;15.40;45.50;;;;;;5031496;28;20905;-61
2022/09/20 12:09:59;;;;;;;1.30;1.20;;;15.40;45.20;;;;;;5030159;28;20402;-60
2022/09/20 12:12:40;;;;;;;1.83;1.40;;;15.30;46.00;;;;;;5012381;28;20422;-61
2022/09/20 12:15:21;;;;;;;1.70;1.30;;;15.20;45.90;;;;;;5037981;28;20789;-60
2022/09/20 12:17:46;;;;;;;3.07;1.40;;;15.10;45.90;;;;;;5051147;28;20402;-60
2022/09/20 12:20:34;;;;;;;1.60;1.50;;;15.20;46.50;;;;;;5023581;28;21015;-60
2022/09/20 12:23:40;;;;;;;2.73;1.30;;;15.20;46.50;;;;;;5011287;28;20272;-63
2022/09/20 12:26:09;;;;;;;2.47;1.40;;;15.00;46.80;;;;;;5019278;28;22578;-62
2022/09/20 12:28:36;;;;;;;3.67;1.63;;;14.70;47.30;;;;;;5030344;28;20519;-60
2022/09/20 12:31:28;;;;;;;4.07;1.87;;;14.50;48.60;;;;;;5023895;28;20458;-61
2022/09/20 12:33:53;;;;;;;4.47;1.63;;;14.20;48.70;;;;;;5026084;28;20434;-60
2022/09/20 12:36:19;;;;;;;3.37;2.00;;;14.30;48.90;;;;;;5032357;28;20545;-59
2022/09/20 12:38:47;;;;;;;3.00;1.30;;;14.40;49.00;;;;;;5011510;28;20258;-61
2022/09/20 12:41:16;;;;;;;3.30;1.70;;;14.60;49.80;;;;;;5027137;28;20180;-60
2022/09/20 12:43:55;;;;;;;3.77;1.53;;;14.90;49.40;;;;;;5021393;28;20485;-60
2022/09/20 12:46:26;;;;;;;4.30;1.90;;;15.00;49.40;;;;;;5028151;28;20470;-60
2022/09/20 12:52:49;;;;;;;2.90;1.50;;;15.10;48.00;;;;;;5026947;28;20430;-60
2022/09/20 12:52:50;;;;;;;8.67;1.70;;;15.10;48.20;;;;;;5025150;28;20529;-61
2022/09/20 12:55:45;;;;;;;4.33;1.60;;;15.30;48.40;;;;;;5023922;28;20450;-61
2022/09/20 12:58:12;;;;;;;2.07;1.60;;;15.30;48.50;;;;;;5026935;28;20433;-60
2022/09/20 13:00:45;;;;;;;3.30;1.90;;;15.30;46.80;;;;;;5028011;28;20423;-60
2022/09/20 13:03:37;;;;;;;4.50;1.60;;;15.20;46.20;;;;;;5025588;28;20474;-59
2022/09/20 13:06:05;;;;;;;1.73;1.30;;;15.10;45.50;;;;;;5024784;28;20818;-59
2022/09/20 13:08:58;;;;;;;3.67;1.63;;;15.00;45.60;;;;;;5028792;28;21213;-62
2022/09/20 13:11:40;;;;;;;1.60;1.27;;;15.00;45.80;;;;;;5027151;28;20983;-59
2022/09/20 13:14:14;;;;;;;1.70;1.53;;;15.00;45.30;;;;;;5029159;28;21059;-62
2022/09/20 13:17:00;;;;;;;4.17;1.30;;;15.30;45.50;;;;;;5029252;28;20568;-60
2022/09/20 13:19:41;;;;;;;1.83;1.30;;;16.10;45.10;;;;;;5024153;28;20509;-61
2022/09/20 13:22:16;;;;;;;1.43;1.33;;;16.90;45.80;;;;;;5028718;28;20517;-60
2022/09/20 13:24:45;;;;;;;8.17;1.93;;;17.60;43.50;;;;;;5027506;28;20430;-61
2022/09/20 13:27:16;;;;;;;4.10;1.47;;;18.10;43.50;;;;;;5023852;28;20426;-61
2022/09/20 13:29:44;;;;;;;2.40;1.63;;;18.40;42.60;;;;;;5028000;28;20434;-60
2022/09/20 13:32:22;;;;;;;5.57;1.37;;;18.30;40.10;;;;;;5017560;28;20461;-62
2022/09/20 13:35:30;;;;;;;2.23;1.40;;;17.90;40.80;;;;;;5016826;28;20442;-60
2022/09/20 13:38:06;;;;;;;1.93;1.30;;;17.40;41.00;;;;;;4983398;28;20462;-59
2022/09/20 13:40:37;;;;;;;6.53;1.80;;;17.40;42.80;;;;;;5022946;28;20644;-61
2022/09/20 13:43:23;;;;;;;2.70;1.30;;;17.30;43.20;;;;;;5037095;28;20447;-59
2022/09/20 13:45:54;;;;;;;1.37;1.27;;;16.90;43.50;;;;;;5011293;28;20438;-59
2022/09/20 13:48:27;;;;;;;3.40;1.63;;;16.60;44.50;;;;;;5008681;28;20873;-60
2022/09/20 13:50:54;;;;;;;5.43;1.67;;;16.30;43.80;;;;;;5022412;28;20451;-60
2022/09/20 13:53:22;;;;;;;4.70;1.77;;;15.90;44.00;;;;;;5025805;28;20457;-61
2022/09/20 13:55:47;;;;;;;3.73;1.33;;;15.70;44.70;;;;;;5028067;28;20430;-60
2022/09/20 13:58:32;;;;;;;2.60;1.40;;;15.50;45.80;;;;;;5024723;28;20434;-59
2022/09/20 14:01:04;;;;;;;3.43;1.47;;;15.50;45.20;;;;;;5011082;28;20184;-61